Terminal Aerodrome Forecast
Issued by NWS

Home | Current Version | Previous Version | Text Only | Print | Product List | Glossary On
Versions: 1 2 3 4 5 6 7 8 9 10 11 12 13 14
000
FTUS41 KLWX 021100
TAFMTN
TAF
KMTN 021131Z 0212/0312 00000KT P6SM BKN015
     FM021400 04004KT P6SM SCT010 BKN045
     FM021500 05005KT P6SM SCT040 SCT080
     FM022000 08005KT P6SM SCT050 SCT090
     FM031100 VRB03KT P6SM SCT008 BKN025=

USA.gov is the U.S. government's official web portal to all federal, state and local government web resources and services.